Overview Statistics Trail Chart Weather Telemetry Raw packets
 

This is the latest recevied weather packets stored in our database for station/object KM5VY. If no packets are shown the sender has not sent any weather packets the latest 10 day(s).

<< 49 50 51 52 53 54 55 >>
Time Temp. Humidity Pressure Rain* Wind** Luminosity Snow
1787938866 31.67° C 33% 1029.5 hPa 0 mm - - -
1787938261 31.11° C 33% 1029.5 hPa 0 mm - - -
1787937660 30° C 34% 1029.8 hPa 0 mm - - -
1787937059 29.44° C 36% 1029.8 hPa 0 mm - - -
1787936458 28.89° C 36% 1029.8 hPa 0 mm - - -
1787935857 28.33° C 38% 1029.8 hPa 0 mm - - -
1787935256 27.78° C 38% 1029.8 hPa 0 mm - - -
1787934655 27.22° C 40% 1029.8 hPa 0 mm - - -
1787934054 26.11° C 42% 1029.8 hPa 0 mm - - -
1787933453 25.56° C 44% 1029.8 hPa 0 mm - - -
1787932852 24.44° C 46% 1029.8 hPa 0 mm - - -
1787932252 23.33° C 48% 1029.8 hPa 0 mm - - -
1787931650 22.78° C 49% 1029.8 hPa 0 mm - - -
1787931049 21.67° C 52% 1030.1 hPa 0 mm - - -
1787930448 20.56° C 54% 1030.8 hPa 0 mm - - -
1787929847 19.44° C 56% 1031.5 hPa 0 mm - - -
1787929246 18.89° C 60% 1030.5 hPa 0 mm - - -
1787928645 17.78° C 62% 1029.8 hPa 0 mm - - -
1787928044 16.67° C 67% 1029.5 hPa 0 mm - - -
1787927443 15° C 73% 1028.8 hPa 0 mm - - -
1787926842 13.89° C 76% 1028.4 hPa 0 mm - - -
1787926241 13.33° C 75% 1028.1 hPa 0 mm - - -
1787925640 12.78° C 72% 1027.8 hPa 0 mm - - -
1787925039 12.22° C 71% 1027.8 hPa 0 mm - - -
1787924438 11.67° C 70% 1027.8 hPa 0 mm - - -

* Rain latest hour (hover to see other rain measurements)
** Current wind speed in m/s (hover to see current wind gust speed)